Time;durP1;ratioP1;P1;durP2;ratioP2;P2;SDS_P1;SDS_P2;PMS_P1;PMS_P2;Temp;Humidity;BMP_temperature;BMP_pressure;BME280_temperature;BME280_humidity;BME280_pressure;Samples;Min_cycle;Max_cycle;Signal;HPM_P1;HPM_P2
2021/04/23 00:01:22;;;;;;;15.07;10.00;;;11.10;90.50;;;;;;5092030;28;20054;-73
2021/04/23 00:03:58;;;;;;;14.55;10.38;;;11.10;90.60;;;;;;5092625;28;20017;-73
2021/04/23 00:06:30;;;;;;;13.85;9.43;;;11.10;90.70;;;;;;5091740;28;20358;-74
2021/04/23 00:08:59;;;;;;;18.95;12.10;;;11.10;90.90;;;;;;5092540;28;20020;-73
2021/04/23 00:11:34;;;;;;;27.05;14.02;;;11.10;91.00;;;;;;5092697;28;20052;-75
2021/04/23 00:14:01;;;;;;;66.43;20.97;;;11.00;91.00;;;;;;5091458;28;20515;-73
2021/04/23 00:16:27;;;;;;;46.28;16.33;;;11.00;91.20;;;;;;5092246;28;20028;-74
2021/04/23 00:18:53;;;;;;;50.65;19.10;;;10.90;91.30;;;;;;5092400;28;20454;-73
2021/04/23 00:21:22;;;;;;;69.53;22.75;;;10.90;91.40;;;;;;5091310;28;20454;-73
2021/04/23 00:23:50;;;;;;;74.60;22.33;;;10.80;91.40;;;;;;5079594;28;20020;-73
2021/04/23 00:26:16;;;;;;;58.28;21.75;;;10.80;91.50;;;;;;5091714;28;20354;-73
2021/04/23 00:28:43;;;;;;;55.35;19.63;;;10.70;91.60;;;;;;5092398;28;20343;-73
2021/04/23 00:31:10;;;;;;;46.03;18.38;;;10.60;91.70;;;;;;5092528;28;20069;-73
2021/04/23 00:33:37;;;;;;;35.30;17.60;;;10.60;91.70;;;;;;5092684;28;20083;-73
2021/04/23 00:36:04;;;;;;;37.47;17.42;;;10.60;91.80;;;;;;5092197;28;20130;-73
2021/04/23 00:38:30;;;;;;;23.58;14.57;;;10.50;91.90;;;;;;5091919;28;20111;-73
2021/04/23 00:41:05;;;;;;;20.60;12.82;;;10.50;91.90;;;;;;5092475;28;20682;-74
2021/04/23 00:43:34;;;;;;;24.17;13.87;;;10.40;92.10;;;;;;5079951;28;20080;-74
2021/04/23 00:46:00;;;;;;;25.35;14.55;;;10.40;92.30;;;;;;5092621;28;20062;-74
2021/04/23 00:48:27;;;;;;;25.17;15.38;;;10.40;92.40;;;;;;5092628;28;20024;-74
2021/04/23 00:51:05;;;;;;;24.05;15.00;;;10.40;92.40;;;;;;5096561;28;20020;-73
2021/04/23 00:53:33;;;;;;;25.25;15.55;;;10.30;92.40;;;;;;5090040;28;20020;-73
2021/04/23 00:56:03;;;;;;;26.05;13.80;;;10.30;92.50;;;;;;5087058;28;20064;-73
2021/04/23 00:58:29;;;;;;;24.73;15.52;;;10.30;92.60;;;;;;5096139;28;20016;-74
2021/04/23 01:01:07;;;;;;;25.13;15.20;;;10.20;92.70;;;;;;5095311;28;20078;-73
2021/04/23 01:03:34;;;;;;;29.20;14.13;;;10.30;92.80;;;;;;5078776;28;20032;-73
2021/04/23 01:06:00;;;;;;;43.90;18.75;;;10.20;92.90;;;;;;5088292;28;20024;-73
2021/04/23 01:08:27;;;;;;;43.55;19.50;;;10.20;93.00;;;;;;5096670;28;20056;-74
2021/04/23 01:10:59;;;;;;;74.47;25.30;;;10.30;93.00;;;;;;5098884;28;20071;-73
2021/04/23 01:13:31;;;;;;;111.78;32.40;;;10.20;93.10;;;;;;5099624;28;20529;-74
2021/04/23 01:16:02;;;;;;;124.05;36.30;;;10.20;93.10;;;;;;5099843;28;20024;-74
2021/04/23 01:18:28;;;;;;;52.58;18.52;;;10.20;93.10;;;;;;5100241;28;20019;-74
2021/04/23 01:21:02;;;;;;;65.35;23.88;;;10.20;93.20;;;;;;5100448;28;20362;-73
2021/04/23 01:23:28;;;;;;;85.75;26.90;;;10.20;93.20;;;;;;5086915;28;20103;-74
2021/04/23 01:25:53;;;;;;;107.38;29.83;;;10.20;93.30;;;;;;5092441;28;20134;-73
2021/04/23 01:28:19;;;;;;;92.53;31.45;;;10.20;93.40;;;;;;5096352;28;20020;-73
2021/04/23 01:30:45;;;;;;;107.30;31.15;;;10.20;93.50;;;;;;5095333;28;20059;-76
2021/04/23 01:33:11;;;;;;;54.83;20.77;;;10.20;93.60;;;;;;5094557;28;20408;-73
2021/04/23 01:35:37;;;;;;;52.78;22.10;;;10.20;93.70;;;;;;5095647;28;20028;-73
2021/04/23 01:38:03;;;;;;;120.70;37.35;;;10.30;93.70;;;;;;5095225;28;20099;-74
2021/04/23 01:40:29;;;;;;;110.80;33.60;;;10.30;93.70;;;;;;5095015;28;20370;-73
2021/04/23 01:42:55;;;;;;;84.57;30.35;;;10.30;93.80;;;;;;5094963;28;20035;-73
2021/04/23 01:45:21;;;;;;;57.28;23.98;;;10.30;93.90;;;;;;5095283;28;20016;-73
2021/04/23 01:47:46;;;;;;;47.95;23.77;;;10.30;94.00;;;;;;5095121;28;20377;-74
2021/04/23 01:50:17;;;;;;;37.92;19.70;;;10.40;94.10;;;;;;5095418;28;20027;-73
2021/04/23 01:52:43;;;;;;;30.23;17.23;;;10.40;94.10;;;;;;5093209;28;20027;-73
2021/04/23 01:55:11;;;;;;;23.92;15.45;;;10.50;94.10;;;;;;5093437;28;20020;-73
2021/04/23 01:57:37;;;;;;;21.10;14.75;;;10.50;94.00;;;;;;5094866;28;20035;-73
2021/04/23 02:00:20;;;;;;;22.80;14.70;;;10.60;94.00;;;;;;5093419;28;20107;-73
2021/04/23 02:02:47;;;;;;;21.90;14.10;;;10.50;93.70;;;;;;5094654;28;20081;-73
2021/04/23 02:05:14;;;;;;;19.52;12.88;;;10.60;93.60;;;;;;5094604;28;20026;-73
2021/04/23 02:07:41;;;;;;;22.85;15.48;;;10.60;93.60;;;;;;5093548;28;20070;-73
2021/04/23 02:10:11;;;;;;;20.80;14.77;;;10.50;93.60;;;;;;5094228;28;20101;-73
2021/04/23 02:12:37;;;;;;;22.65;14.35;;;10.50;93.60;;;;;;5094652;28;20392;-73
2021/04/23 02:15:06;;;;;;;22.58;14.30;;;10.50;93.60;;;;;;5094836;28;20024;-73
2021/04/23 02:17:32;;;;;;;21.20;14.75;;;10.50;93.60;;;;;;5093352;28;20133;-72
2021/04/23 02:19:57;;;;;;;24.27;14.88;;;10.50;93.70;;;;;;5093283;28;20517;-73
2021/04/23 02:22:23;;;;;;;25.70;16.08;;;10.50;93.70;;;;;;5092683;28;20454;-73
2021/04/23 02:24:49;;;;;;;31.50;16.70;;;10.40;93.70;;;;;;5094063;28;20027;-73
2021/04/23 02:27:15;;;;;;;32.70;17.05;;;10.40;93.70;;;;;;5094842;28;20124;-73
2021/04/23 02:29:40;;;;;;;32.55;17.13;;;10.40;93.80;;;;;;5094015;28;20028;-73
2021/04/23 02:32:06;;;;;;;32.83;16.90;;;10.40;94.10;;;;;;5094692;28;20024;-73
2021/04/23 02:34:34;;;;;;;25.77;15.57;;;10.30;93.90;;;;;;5093740;28;20011;-73
2021/04/23 02:36:59;;;;;;;26.02;14.60;;;10.30;94.00;;;;;;5094330;28;20134;-74
2021/04/23 02:39:26;;;;;;;24.33;15.95;;;10.30;94.10;;;;;;5093856;28;20031;-73
2021/04/23 02:41:55;;;;;;;26.92;16.33;;;10.30;94.20;;;;;;5094520;28;20093;-73
2021/04/23 02:44:21;;;;;;;24.48;16.40;;;10.30;94.30;;;;;;5094358;28;20020;-73
2021/04/23 02:46:47;;;;;;;27.13;16.55;;;10.30;94.40;;;;;;5079553;28;20024;-73
2021/04/23 02:49:13;;;;;;;28.52;16.95;;;10.30;94.50;;;;;;5094041;28;20019;-73
2021/04/23 02:51:43;;;;;;;24.98;16.27;;;10.30;94.70;;;;;;5093842;28;20023;-73
2021/04/23 02:54:10;;;;;;;27.42;18.25;;;10.30;95.00;;;;;;5093253;28;20431;-73
2021/04/23 02:56:35;;;;;;;29.60;18.33;;;10.40;95.20;;;;;;5091630;28;20027;-73
2021/04/23 02:59:04;;;;;;;24.50;14.95;;;10.40;95.20;;;;;;5075153;28;20110;-73
2021/04/23 03:01:35;;;;;;;39.97;21.92;;;10.50;95.20;;;;;;5074075;28;20024;-73
2021/04/23 03:04:02;;;;;;;65.65;24.65;;;10.50;95.00;;;;;;5095008;28;20041;-73
2021/04/23 03:06:28;;;;;;;64.03;24.08;;;10.50;94.90;;;;;;5080308;28;20056;-73
2021/04/23 03:08:54;;;;;;;48.38;21.85;;;10.50;94.80;;;;;;5080165;28;20052;-73
2021/04/23 03:11:23;;;;;;;22.67;14.40;;;10.60;94.70;;;;;;5081925;28;20123;-73
2021/04/23 03:13:56;;;;;;;32.35;19.73;;;10.60;94.70;;;;;;5086778;28;20108;-73
2021/04/23 03:16:24;;;;;;;38.67;21.90;;;10.60;94.70;;;;;;5084427;28;20075;-73
2021/04/23 03:18:50;;;;;;;40.63;21.85;;;10.70;94.90;;;;;;5094064;28;20016;-73
2021/04/23 03:21:18;;;;;;;31.52;17.05;;;10.70;95.00;;;;;;5097544;28;20024;-73
2021/04/23 03:23:44;;;;;;;28.67;18.88;;;10.80;95.00;;;;;;5096830;28;20084;-72
2021/04/23 03:26:12;;;;;;;35.10;20.70;;;10.80;94.90;;;;;;5101433;28;20018;-73
2021/04/23 03:28:39;;;;;;;56.63;24.98;;;10.80;94.90;;;;;;5098925;28;20038;-73
2021/04/23 03:31:06;;;;;;;52.20;24.00;;;10.80;94.70;;;;;;5091412;28;20086;-73
2021/04/23 03:33:33;;;;;;;60.65;25.75;;;10.80;94.70;;;;;;5093695;28;20058;-73
2021/04/23 03:36:00;;;;;;;75.03;26.83;;;10.80;94.80;;;;;;5093123;28;20047;-73
2021/04/23 03:38:29;;;;;;;50.88;23.70;;;10.80;94.80;;;;;;5092712;28;20012;-77
2021/04/23 03:40:55;;;;;;;44.75;23.58;;;10.80;94.60;;;;;;5093103;28;20506;-73
2021/04/23 03:43:21;;;;;;;42.92;21.23;;;10.80;94.50;;;;;;5092720;28;20095;-73
2021/04/23 03:45:48;;;;;;;26.02;17.35;;;10.80;94.60;;;;;;5092684;28;20111;-73
2021/04/23 03:48:15;;;;;;;26.15;17.02;;;10.80;94.60;;;;;;5092852;28;20016;-73
2021/04/23 03:50:41;;;;;;;35.33;17.17;;;10.90;94.90;;;;;;5092401;28;20019;-74
2021/04/23 03:53:10;;;;;;;48.45;24.27;;;11.10;95.40;;;;;;5091366;28;20020;-74
2021/04/23 03:55:44;;;;;;;33.65;19.95;;;11.40;95.80;;;;;;5092678;28;20028;-74
2021/04/23 03:58:10;;;;;;;39.35;19.27;;;11.70;94.80;;;;;;5092584;28;20035;-73
2021/04/23 04:00:43;;;;;;;37.42;19.80;;;11.80;94.40;;;;;;5090759;28;20090;-74
2021/04/23 04:03:09;;;;;;;25.17;15.20;;;12.00;94.50;;;;;;5092771;28;20069;-74
2021/04/23 04:05:35;;;;;;;24.13;15.85;;;12.10;93.60;;;;;;5091463;28;20024;-75
2021/04/23 04:08:03;;;;;;;21.27;14.63;;;12.20;93.00;;;;;;5092877;28;20067;-74
2021/04/23 04:10:29;;;;;;;21.88;14.25;;;12.20;92.90;;;;;;5091886;28;20044;-73
2021/04/23 04:12:55;;;;;;;20.98;15.10;;;12.30;92.70;;;;;;5083406;28;20056;-75
2021/04/23 04:15:26;;;;;;;21.77;14.35;;;12.40;92.70;;;;;;5091091;28;20048;-74
2021/04/23 04:17:52;;;;;;;21.98;14.93;;;12.60;91.90;;;;;;5092370;28;20113;-75
2021/04/23 04:20:24;;;;;;;23.25;16.23;;;12.40;90.90;;;;;;5092496;28;20097;-74
2021/04/23 04:22:51;;;;;;;25.73;16.25;;;12.30;90.40;;;;;;5092297;28;20020;-74
2021/04/23 04:25:25;;;;;;;25.85;17.13;;;12.10;90.50;;;;;;5095001;28;20102;-74
2021/04/23 04:27:51;;;;;;;24.85;15.88;;;11.90;90.90;;;;;;5095048;28;20025;-74
2021/04/23 04:30:18;;;;;;;24.58;16.67;;;11.70;91.00;;;;;;5096603;28;20032;-73
2021/04/23 04:32:43;;;;;;;28.40;17.05;;;11.60;91.30;;;;;;5095806;28;20030;-73
2021/04/23 04:35:10;;;;;;;26.85;18.00;;;11.50;91.50;;;;;;5095183;28;20016;-73
2021/04/23 04:37:35;;;;;;;24.17;17.10;;;11.30;91.60;;;;;;5091528;28;20086;-80
2021/04/23 04:40:02;;;;;;;26.52;16.85;;;11.30;91.90;;;;;;5090204;28;20035;-82
2021/04/23 04:42:28;;;;;;;27.90;18.00;;;11.20;92.20;;;;;;5091597;28;20017;-80
2021/04/23 04:45:00;;;;;;;29.52;19.05;;;11.10;92.30;;;;;;5095323;28;20019;-79
2021/04/23 04:47:29;;;;;;;28.23;18.00;;;11.10;92.50;;;;;;5095121;28;20052;-80
2021/04/23 04:49:56;;;;;;;29.10;19.15;;;11.10;92.60;;;;;;5095032;28;20015;-78
2021/04/23 04:52:22;;;;;;;26.73;17.85;;;11.10;92.80;;;;;;5095921;28;20012;-78
2021/04/23 04:54:48;;;;;;;30.27;19.88;;;11.00;93.00;;;;;;5095884;28;20095;-78
2021/04/23 04:57:13;;;;;;;29.33;18.85;;;11.00;93.30;;;;;;5095409;28;20016;-78
2021/04/23 04:59:42;;;;;;;29.80;17.73;;;11.00;93.60;;;;;;5095236;28;20024;-78
2021/04/23 05:02:08;;;;;;;32.35;19.33;;;11.10;93.80;;;;;;5084499;28;20162;-71
2021/04/23 05:04:33;;;;;;;29.08;18.70;;;11.20;94.40;;;;;;5088330;28;20457;-78
2021/04/23 05:06:59;;;;;;;34.60;19.05;;;11.50;95.20;;;;;;5095617;28;20065;-71
2021/04/23 05:09:25;;;;;;;29.10;17.33;;;11.80;94.40;;;;;;5097834;28;20078;-78
2021/04/23 05:11:50;;;;;;;26.10;16.83;;;12.10;94.70;;;;;;5097235;28;20099;-75
2021/04/23 05:14:16;;;;;;;22.70;15.38;;;12.50;95.70;;;;;;5096968;28;20476;-73
2021/04/23 05:16:42;;;;;;;24.33;15.43;;;13.20;96.00;;;;;;5099631;28;20016;-70
2021/04/23 05:19:08;;;;;;;24.63;15.38;;;14.00;94.10;;;;;;5100009;28;20332;-74
2021/04/23 05:21:33;;;;;;;19.83;12.30;;;14.60;92.50;;;;;;5100830;28;20077;-74
2021/04/23 05:23:59;;;;;;;18.38;13.02;;;15.00;90.00;;;;;;5098920;28;20020;-74
2021/04/23 05:26:25;;;;;;;21.13;15.65;;;15.30;88.00;;;;;;5099897;28;20411;-75
2021/04/23 05:28:51;;;;;;;20.42;14.13;;;15.60;85.40;;;;;;5094304;28;20028;-72
2021/04/23 05:31:17;;;;;;;19.65;14.88;;;15.90;82.60;;;;;;5090505;28;20020;-75
2021/04/23 05:33:42;;;;;;;18.42;13.20;;;16.10;80.20;;;;;;5086724;28;20070;-78
2021/04/23 05:36:08;;;;;;;19.90;14.88;;;15.80;76.40;;;;;;5092429;28;20024;-75
2021/04/23 05:38:34;;;;;;;23.20;15.63;;;15.30;75.90;;;;;;5089023;28;20028;-76
2021/04/23 05:41:00;;;;;;;35.63;18.25;;;14.90;77.50;;;;;;5091023;28;20020;-78
2021/04/23 05:43:26;;;;;;;42.40;20.60;;;14.90;80.70;;;;;;5093128;28;20020;-80
2021/04/23 05:45:51;;;;;;;63.53;29.08;;;15.30;82.20;;;;;;5094796;28;20358;-79
2021/04/23 05:48:18;;;;;;;91.50;39.50;;;15.70;81.60;;;;;;5094527;28;20073;-75
2021/04/23 05:50:45;;;;;;;72.80;35.38;;;16.10;82.70;;;;;;5093883;28;20450;-76
2021/04/23 05:53:12;;;;;;;33.08;19.17;;;16.50;80.80;;;;;;5093671;28;20028;-74
2021/04/23 05:55:38;;;;;;;19.35;15.45;;;16.50;77.10;;;;;;5093893;28;20016;-74
2021/04/23 05:58:06;;;;;;;21.92;16.17;;;16.30;76.20;;;;;;5092608;28;20028;-74
2021/04/23 06:00:34;;;;;;;23.73;16.60;;;16.30;77.20;;;;;;5093210;28;20050;-74
2021/04/23 06:03:02;;;;;;;21.83;16.48;;;16.60;78.40;;;;;;5092963;28;20038;-70
2021/04/23 06:05:30;;;;;;;19.83;15.13;;;16.70;76.70;;;;;;5092997;28;20024;-74
2021/04/23 06:08:01;;;;;;;20.48;15.43;;;16.60;75.60;;;;;;5092539;28;20046;-76
2021/04/23 06:10:27;;;;;;;22.55;17.33;;;16.60;75.50;;;;;;5092695;28;20051;-75
2021/04/23 06:12:54;;;;;;;23.55;16.50;;;16.50;75.40;;;;;;5093825;28;20103;-76
2021/04/23 06:15:20;;;;;;;23.48;16.15;;;16.80;76.80;;;;;;5094464;28;20923;-75
2021/04/23 06:17:47;;;;;;;21.17;15.35;;;17.20;77.20;;;;;;5094393;28;20027;-75
2021/04/23 06:20:18;;;;;;;20.35;15.70;;;17.70;77.20;;;;;;5092348;28;20039;-74
2021/04/23 06:22:44;;;;;;;22.80;15.57;;;18.20;74.90;;;;;;5094042;28;20036;-74
2021/04/23 06:25:13;;;;;;;22.58;16.00;;;18.50;73.40;;;;;;5092965;28;20165;-74
2021/04/23 06:27:40;;;;;;;23.92;15.93;;;18.90;72.80;;;;;;5092079;28;20481;-74
2021/04/23 06:30:09;;;;;;;21.42;16.20;;;19.20;71.20;;;;;;5093965;28;20024;-75
2021/04/23 06:32:36;;;;;;;23.38;16.58;;;19.20;69.70;;;;;;5093475;28;20339;-73
2021/04/23 06:35:02;;;;;;;26.10;17.58;;;18.80;68.10;;;;;;5093944;28;20016;-73
2021/04/23 06:37:28;;;;;;;21.73;15.73;;;18.40;67.90;;;;;;5094192;28;20024;-73
2021/04/23 06:39:54;;;;;;;24.98;16.83;;;18.00;68.10;;;;;;5093837;28;20028;-74
2021/04/23 06:42:19;;;;;;;21.05;15.93;;;17.50;68.40;;;;;;5092517;28;20115;-73
2021/04/23 06:44:45;;;;;;;24.33;16.73;;;17.20;69.40;;;;;;5093570;28;20024;-73
2021/04/23 06:47:11;;;;;;;24.42;16.90;;;16.90;70.60;;;;;;5091591;28;20032;-73
2021/04/23 06:49:37;;;;;;;27.55;17.48;;;16.80;71.50;;;;;;5093821;28;20396;-73
2021/04/23 06:52:03;;;;;;;27.42;17.25;;;16.60;72.00;;;;;;5093744;28;20024;-73
2021/04/23 06:54:29;;;;;;;21.30;15.85;;;16.60;73.00;;;;;;5092341;28;20023;-73
2021/04/23 06:56:55;;;;;;;20.30;15.43;;;16.90;74.40;;;;;;5093849;28;20019;-73
2021/04/23 06:59:20;;;;;;;19.60;14.95;;;17.20;74.50;;;;;;5093369;28;20020;-73
2021/04/23 07:01:46;;;;;;;20.27;15.27;;;17.50;73.20;;;;;;5093361;28;20027;-73
2021/04/23 07:04:12;;;;;;;16.92;13.18;;;18.10;73.90;;;;;;5093432;28;20071;-74
2021/04/23 07:06:40;;;;;;;18.70;13.30;;;18.80;72.50;;;;;;5093545;28;20040;-74
2021/04/23 07:09:07;;;;;;;16.83;13.10;;;19.10;69.90;;;;;;5092301;28;20020;-74
2021/04/23 07:11:34;;;;;;;18.45;13.73;;;19.20;68.00;;;;;;5092147;28;20055;-74
2021/04/23 07:13:59;;;;;;;18.35;13.77;;;19.30;67.80;;;;;;5093753;28;20065;-75
2021/04/23 07:16:25;;;;;;;18.17;13.70;;;19.40;66.90;;;;;;5094131;28;20103;-74
2021/04/23 07:18:51;;;;;;;16.48;13.18;;;19.40;65.90;;;;;;5095912;28;20354;-74
2021/04/23 07:21:17;;;;;;;18.33;14.10;;;19.30;65.40;;;;;;5096243;28;20024;-75
2021/04/23 07:23:42;;;;;;;16.63;13.52;;;19.20;65.20;;;;;;5095052;28;20031;-75
2021/04/23 07:26:08;;;;;;;18.08;13.68;;;19.00;64.50;;;;;;5094443;28;20028;-74
2021/04/23 07:28:34;;;;;;;15.90;13.45;;;18.90;65.40;;;;;;5094835;28;20370;-74
2021/04/23 07:31:00;;;;;;;18.38;13.57;;;19.10;65.70;;;;;;5092752;28;20023;-74
2021/04/23 07:33:25;;;;;;;15.07;12.20;;;19.40;65.70;;;;;;5092852;28;20023;-74
2021/04/23 07:35:51;;;;;;;15.25;12.65;;;19.70;64.10;;;;;;5093700;28;20439;-76
2021/04/23 07:38:17;;;;;;;14.90;12.13;;;19.80;63.80;;;;;;5092268;28;20469;-74
2021/04/23 07:40:44;;;;;;;15.07;12.85;;;20.00;63.70;;;;;;5092487;28;20028;-74
2021/04/23 07:43:11;;;;;;;15.75;12.82;;;20.10;62.90;;;;;;5092898;28;20024;-74
2021/04/23 07:45:37;;;;;;;16.35;13.15;;;19.90;61.70;;;;;;5092943;28;20032;-74
2021/04/23 07:48:03;;;;;;;17.15;13.32;;;19.40;60.20;;;;;;5091726;28;20016;-73
2021/04/23 07:50:30;;;;;;;17.15;13.15;;;18.60;60.40;;;;;;5092459;28;20053;-74
2021/04/23 07:52:56;;;;;;;15.65;11.45;;;18.00;61.50;;;;;;5092692;28;20024;-74
2021/04/23 07:55:23;;;;;;;13.55;10.70;;;17.70;63.20;;;;;;5093191;28;20081;-74
2021/04/23 07:57:53;;;;;;;14.48;10.60;;;17.50;63.20;;;;;;5093130;28;20061;-75
2021/04/23 08:00:21;;;;;;;15.48;10.73;;;17.80;63.90;;;;;;5092501;28;20020;-74
2021/04/23 08:02:51;;;;;;;12.82;9.85;;;18.20;63.10;;;;;;5092550;28;20065;-74
2021/04/23 08:05:19;;;;;;;16.20;9.93;;;18.40;62.30;;;;;;5091399;28;20103;-73
2021/04/23 08:07:46;;;;;;;17.23;9.95;;;18.50;61.10;;;;;;5092989;28;20457;-74
2021/04/23 08:10:14;;;;;;;13.18;8.90;;;18.20;60.50;;;;;;5092599;28;20044;-74
2021/04/23 08:12:40;;;;;;;15.00;10.35;;;18.00;60.30;;;;;;5092229;28;20070;-73
2021/04/23 08:15:08;;;;;;;14.48;9.82;;;17.80;60.50;;;;;;5091391;28;20357;-74
2021/04/23 08:17:34;;;;;;;14.60;9.65;;;17.60;61.00;;;;;;5092592;28;20374;-73
2021/04/23 08:20:02;;;;;;;16.95;11.05;;;17.50;61.10;;;;;;5091453;28;20110;-74
2021/04/23 08:22:28;;;;;;;19.13;12.55;;;17.10;60.40;;;;;;5090404;28;20046;-75
2021/04/23 08:24:53;;;;;;;17.90;11.30;;;16.60;60.50;;;;;;5092799;28;20455;-74
2021/04/23 08:27:19;;;;;;;16.33;10.68;;;16.10;61.40;;;;;;5091682;28;20064;-74
2021/04/23 08:29:45;;;;;;;18.55;10.05;;;15.80;62.80;;;;;;5092488;28;20032;-74
2021/04/23 08:32:27;;;;;;;16.70;11.02;;;15.50;63.90;;;;;;5092635;28;20516;-74
2021/04/23 08:35:06;;;;;;;18.65;11.90;;;15.20;63.60;;;;;;5091079;28;20462;-74
2021/04/23 08:37:32;;;;;;;19.00;11.50;;;15.00;64.70;;;;;;5092442;28;20055;-74
2021/04/23 08:40:00;;;;;;;16.58;10.95;;;14.90;65.60;;;;;;5090912;28;20048;-74
2021/04/23 08:42:34;;;;;;;18.30;11.25;;;14.80;65.80;;;;;;5090851;28;20024;-75
2021/04/23 08:45:03;;;;;;;19.73;12.05;;;14.90;66.00;;;;;;5092468;28;20020;-74
2021/04/23 08:47:51;;;;;;;20.42;11.52;;;14.80;66.30;;;;;;5092517;28;20016;-73
2021/04/23 08:50:21;;;;;;;16.45;9.50;;;14.80;66.50;;;;;;5077526;28;20028;-73
2021/04/23 08:53:06;;;;;;;15.98;9.90;;;15.00;66.50;;;;;;5092172;28;20024;-74
2021/04/23 08:55:32;;;;;;;15.57;10.60;;;15.10;66.40;;;;;;5080376;28;20164;-74
2021/04/23 08:57:57;;;;;;;17.35;10.45;;;15.30;66.60;;;;;;5092446;28;20791;-73
2021/04/23 09:00:24;;;;;;;21.13;12.20;;;15.60;66.20;;;;;;5092211;28;20024;-73
2021/04/23 09:02:50;;;;;;;21.05;12.30;;;15.70;65.30;;;;;;5090872;28;20169;-74
2021/04/23 09:05:16;;;;;;;20.42;12.32;;;15.70;64.70;;;;;;5090885;28;20103;-74
2021/04/23 09:07:58;;;;;;;19.52;10.70;;;15.70;64.70;;;;;;5091036;28;20479;-74
2021/04/23 09:10:23;;;;;;;15.73;10.55;;;15.70;64.60;;;;;;5094063;28;20043;-73
2021/04/23 09:13:05;;;;;;;15.15;9.80;;;15.40;63.90;;;;;;5094610;28;20373;-73
2021/04/23 09:15:31;;;;;;;19.02;9.85;;;15.10;64.10;;;;;;5095751;28;20035;-73
2021/04/23 09:18:12;;;;;;;14.48;8.68;;;15.00;64.40;;;;;;5096476;28;20446;-72
2021/04/23 09:20:45;;;;;;;16.15;9.68;;;14.80;64.60;;;;;;5076150;28;20115;-72
2021/04/23 09:23:20;;;;;;;17.77;10.60;;;14.50;64.60;;;;;;5107901;28;20103;-72
2021/04/23 09:25:53;;;;;;;19.07;10.00;;;14.20;65.10;;;;;;5093890;28;20028;-72
2021/04/23 09:28:39;;;;;;;14.70;9.23;;;13.90;65.90;;;;;;5087864;28;20029;-72
2021/04/23 09:31:26;;;;;;;15.30;9.25;;;13.80;66.50;;;;;;5087889;28;21156;-72
2021/04/23 09:33:52;;;;;;;;;;;13.70;66.90;;;;;;5102345;28;20042;-72
2021/04/23 09:36:25;;;;;;;17.15;9.80;;;13.60;67.30;;;;;;5086458;28;19900;-72
2021/04/23 09:39:08;;;;;;;14.15;8.80;;;13.50;67.20;;;;;;5103328;28;20099;-73
2021/04/23 09:41:34;;;;;;;15.70;8.80;;;13.30;67.50;;;;;;5097862;28;20017;-72
2021/04/23 09:44:00;;;;;;;15.68;9.20;;;13.20;67.60;;;;;;5094855;28;20024;-72
2021/04/23 09:46:36;;;;;;;13.73;9.18;;;13.10;67.80;;;;;;5095910;28;20062;-73
2021/04/23 09:49:19;;;;;;;14.18;9.27;;;12.90;67.90;;;;;;5099661;28;20020;-72
2021/04/23 09:51:46;;;;;;;15.30;9.45;;;12.80;68.40;;;;;;5094393;28;20020;-72
2021/04/23 09:54:18;;;;;;;14.38;9.27;;;12.70;68.80;;;;;;5095261;28;20020;-72
2021/04/23 09:56:44;;;;;;;14.23;9.40;;;12.50;69.10;;;;;;5092934;28;20065;-73
2021/04/23 09:59:44;;;;;;;14.02;8.65;;;12.50;69.50;;;;;;5094205;28;20366;-74
2021/04/23 10:02:13;;;;;;;15.23;8.55;;;12.30;69.70;;;;;;5093565;28;20035;-71
2021/04/23 10:04:39;;;;;;;15.38;8.48;;;12.20;70.00;;;;;;5094418;28;20458;-69
2021/04/23 10:07:15;;;;;;;13.77;8.82;;;12.00;70.40;;;;;;5094139;28;20050;-71
2021/04/23 10:10:04;;;;;;;14.80;8.88;;;11.90;71.00;;;;;;5094668;28;20093;-73
2021/04/23 10:12:58;;;;;;;15.52;8.95;;;11.90;71.40;;;;;;5081865;28;20016;-69
2021/04/23 10:15:40;;;;;;;13.18;8.65;;;11.80;71.50;;;;;;5091957;28;20032;-69
2021/04/23 10:18:11;;;;;;;12.57;8.85;;;11.90;71.80;;;;;;5093414;28;20042;-69
2021/04/23 10:20:47;;;;;;;12.73;9.50;;;11.90;72.20;;;;;;5093071;28;20599;-70
2021/04/23 10:23:18;;;;;;;12.10;9.00;;;11.90;72.10;;;;;;5094356;28;20016;-69
2021/04/23 10:25:44;;;;;;;14.40;9.32;;;11.90;72.10;;;;;;5094072;28;20513;-72
2021/04/23 10:28:15;;;;;;;12.55;9.00;;;12.00;72.40;;;;;;5093172;28;20454;-69
2021/04/23 10:30:43;;;;;;;13.45;9.20;;;12.10;72.90;;;;;;5092785;28;20024;-69
2021/04/23 10:33:12;;;;;;;13.45;8.73;;;12.20;72.90;;;;;;5094041;28;20042;-70
2021/04/23 10:35:43;;;;;;;10.45;8.00;;;12.40;72.20;;;;;;5093003;28;20118;-70
2021/04/23 10:38:11;;;;;;;12.90;8.20;;;12.50;71.50;;;;;;5092558;28;20452;-69
2021/04/23 10:40:38;;;;;;;10.98;7.57;;;12.60;71.30;;;;;;5093590;28;20032;-69
2021/04/23 10:43:16;;;;;;;11.05;7.53;;;12.80;70.90;;;;;;5093929;28;20098;-70
2021/04/23 10:45:49;;;;;;;11.75;7.40;;;13.00;70.40;;;;;;5093025;28;20055;-70
2021/04/23 10:48:15;;;;;;;11.60;7.10;;;13.20;69.90;;;;;;5093872;28;20036;-69
2021/04/23 10:50:46;;;;;;;10.68;7.20;;;13.50;69.70;;;;;;5093794;28;20056;-71
2021/04/23 10:53:16;;;;;;;10.20;7.03;;;13.60;68.30;;;;;;5092402;28;21163;-69
2021/04/23 10:55:52;;;;;;;12.00;6.70;;;13.50;67.70;;;;;;5093727;28;20031;-70
2021/04/23 10:58:27;;;;;;;12.48;6.97;;;13.50;67.70;;;;;;5093359;28;21463;-69
2021/04/23 11:00:54;;;;;;;;;;;13.50;67.70;;;;;;5092577;28;20034;-69
2021/04/23 11:03:36;;;;;;;9.07;6.30;;;13.50;68.20;;;;;;5093288;28;19911;-69
2021/04/23 11:06:26;;;;;;;11.18;6.90;;;13.50;67.50;;;;;;5092807;28;20027;-69
2021/04/23 11:09:02;;;;;;;8.45;6.10;;;13.40;67.20;;;;;;5092161;28;20024;-69
2021/04/23 11:11:29;;;;;;;10.95;6.47;;;13.30;67.10;;;;;;5093372;28;20036;-70
2021/04/23 11:14:15;;;;;;;8.98;5.68;;;13.30;67.30;;;;;;5093153;28;20027;-70
2021/04/23 11:16:41;;;;;;;;;;;13.40;67.60;;;;;;5094415;28;20023;-73
2021/04/23 11:19:21;;;;;;;9.32;6.00;;;13.40;68.50;;;;;;5093613;28;20002;-70
2021/04/23 11:22:02;;;;;;;10.65;5.80;;;13.40;67.30;;;;;;5093303;28;20103;-69
2021/04/23 11:24:27;;;;;;;9.02;5.43;;;13.30;67.00;;;;;;5092879;28;20024;-70
2021/04/23 11:26:57;;;;;;;8.23;5.70;;;13.20;67.10;;;;;;5093824;28;20028;-70
2021/04/23 11:29:39;;;;;;;9.43;6.28;;;13.10;67.50;;;;;;5094333;28;20016;-70
2021/04/23 11:32:25;;;;;;;10.40;6.00;;;13.10;67.90;;;;;;5091818;28;20100;-70
2021/04/23 11:35:15;;;;;;;10.35;6.05;;;12.90;67.90;;;;;;5108648;28;20012;-69
2021/04/23 11:37:41;;;;;;;9.30;5.85;;;12.70;67.70;;;;;;5097920;28;20020;-71
2021/04/23 11:40:12;;;;;;;9.80;5.93;;;12.50;68.20;;;;;;5096187;28;20419;-69
2021/04/23 11:42:53;;;;;;;9.60;5.70;;;12.30;68.30;;;;;;5093808;28;20024;-69
2021/04/23 11:45:22;;;;;;;10.13;5.90;;;12.20;68.80;;;;;;5081692;28;20016;-69
2021/04/23 11:47:55;;;;;;;11.43;5.82;;;12.10;69.10;;;;;;5092788;28;20426;-70
2021/04/23 11:50:27;;;;;;;8.75;5.45;;;12.10;69.50;;;;;;5093106;28;20020;-69
2021/04/23 11:52:55;;;;;;;9.48;5.93;;;12.00;69.70;;;;;;5091681;28;20016;-73
2021/04/23 11:55:27;;;;;;;9.27;6.53;;;12.00;70.00;;;;;;5092851;28;20102;-70
2021/04/23 11:58:11;;;;;;;9.82;6.10;;;12.00;70.30;;;;;;5092042;28;20016;-69
2021/04/23 12:00:52;;;;;;;11.07;6.25;;;12.10;70.40;;;;;;5091331;28;20028;-69
2021/04/23 12:03:19;;;;;;;8.25;6.05;;;12.20;70.80;;;;;;5092717;28;20446;-69
2021/04/23 12:05:48;;;;;;;9.90;6.45;;;12.20;70.40;;;;;;5093014;28;20081;-70
2021/04/23 12:08:15;;;;;;;9.93;6.30;;;12.10;70.30;;;;;;5092785;28;20106;-69
2021/04/23 12:10:43;;;;;;;11.20;6.53;;;12.00;70.30;;;;;;5092344;28;20048;-70
2021/04/23 12:13:15;;;;;;;7.90;5.65;;;11.90;70.40;;;;;;5093016;28;20023;-70
2021/04/23 12:15:42;;;;;;;9.85;6.40;;;11.90;70.90;;;;;;5092465;28;20030;-69
2021/04/23 12:18:10;;;;;;;11.20;6.95;;;11.80;71.20;;;;;;5092624;28;20096;-69
2021/04/23 12:20:49;;;;;;;8.55;6.00;;;11.80;71.30;;;;;;5090218;28;20135;-69
2021/04/23 12:23:21;;;;;;;9.70;6.28;;;11.70;71.40;;;;;;5093168;28;20447;-70
2021/04/23 12:25:58;;;;;;;10.73;6.20;;;11.60;72.10;;;;;;5092465;28;20347;-70
2021/04/23 12:28:34;;;;;;;9.25;5.63;;;11.70;72.20;;;;;;5091457;28;20462;-75
2021/04/23 12:31:20;;;;;;;8.30;5.75;;;11.70;72.10;;;;;;5090835;28;20024;-70
2021/04/23 12:33:51;;;;;;;8.07;5.70;;;11.60;72.70;;;;;;5091565;28;20081;-70
2021/04/23 12:36:21;;;;;;;8.63;5.32;;;11.50;72.30;;;;;;5092184;28;20089;-70
2021/04/23 12:38:54;;;;;;;10.60;4.63;;;11.40;72.50;;;;;;5092089;28;20477;-70
2021/04/23 12:41:32;;;;;;;9.65;4.45;;;11.40;72.70;;;;;;5090785;28;20024;-70